Time;durP1;ratioP1;P1;durP2;ratioP2;P2;SDS_P1;SDS_P2;PMS_P1;PMS_P2;Temp;Humidity;BMP_temperature;BMP_pressure;BME280_temperature;BME280_humidity;BME280_pressure;Samples;Min_cycle;Max_cycle;Signal;HPM_P1;HPM_P2
2023/02/13 00:00:23;;;;;;;30.55;17.60;;;9.20;99.90;;;;;;5082212;28;20452;-92
2023/02/13 00:02:49;;;;;;;26.80;16.95;;;9.20;99.90;;;;;;5066104;28;20028;-91
2023/02/13 00:05:14;;;;;;;29.60;18.13;;;9.10;99.90;;;;;;5068356;28;20025;-91
2023/02/13 00:07:40;;;;;;;29.60;16.92;;;9.10;99.90;;;;;;5051239;28;20048;-91
2023/02/13 00:10:06;;;;;;;28.15;17.25;;;9.10;99.90;;;;;;5083889;28;20024;-91
2023/02/13 00:12:32;;;;;;;27.20;17.60;;;9.10;99.90;;;;;;5065280;28;20029;-90
2023/02/13 00:14:59;;;;;;;29.35;17.45;;;9.10;99.90;;;;;;5081560;28;20037;-91
2023/02/13 00:17:25;;;;;;;26.33;16.38;;;9.10;99.90;;;;;;5069220;28;20098;-91
2023/02/13 00:19:51;;;;;;;28.30;17.70;;;9.10;99.90;;;;;;5097176;28;20020;-92
2023/02/13 00:22:17;;;;;;;27.08;16.63;;;9.10;99.90;;;;;;5065824;28;20021;-93
2023/02/13 00:24:42;;;;;;;26.50;16.45;;;9.10;99.90;;;;;;5082937;28;20016;-92
2023/02/13 00:27:08;;;;;;;26.30;16.58;;;9.10;99.90;;;;;;5083347;28;20084;-95
2023/02/13 00:29:34;;;;;;;26.73;16.50;;;9.00;99.90;;;;;;5082684;28;20108;-91
2023/02/13 00:32:00;;;;;;;26.27;16.52;;;9.00;99.90;;;;;;5082728;28;20008;-92
2023/02/13 00:34:26;;;;;;;27.98;17.33;;;9.00;99.90;;;;;;5063879;28;20004;-91
2023/02/13 00:36:52;;;;;;;28.33;17.77;;;9.00;99.90;;;;;;5056619;28;20033;-91
2023/02/13 00:39:18;;;;;;;27.45;16.27;;;9.00;99.90;;;;;;5063086;28;20039;-91
2023/02/13 00:41:44;;;;;;;28.77;16.92;;;9.00;99.90;;;;;;5046170;28;20024;-92
2023/02/13 00:44:10;;;;;;;29.83;16.33;;;9.00;99.90;;;;;;5063892;28;20017;-92
2023/02/13 00:46:37;;;;;;;27.38;15.88;;;9.00;99.90;;;;;;5063188;28;20453;-92
2023/02/13 00:49:03;;;;;;;28.02;16.67;;;9.00;99.90;;;;;;5064965;28;20520;-92
2023/02/13 00:51:29;;;;;;;27.30;16.60;;;9.00;99.90;;;;;;5065676;28;20025;-89
2023/02/13 00:53:55;;;;;;;25.10;15.73;;;9.00;99.90;;;;;;5062748;28;20472;-90
2023/02/13 00:56:20;;;;;;;31.60;17.73;;;9.00;99.90;;;;;;5048999;28;20079;-90
2023/02/13 00:58:46;;;;;;;29.88;15.73;;;9.00;99.90;;;;;;5068976;28;20074;-90
2023/02/13 01:01:12;;;;;;;28.17;16.38;;;9.00;99.90;;;;;;5071873;28;20033;-92
2023/02/13 01:03:38;;;;;;;26.98;16.27;;;9.00;99.90;;;;;;5086944;28;20040;-90
2023/02/13 01:06:04;;;;;;;28.70;17.55;;;9.00;99.90;;;;;;5083478;28;20025;-91
2023/02/13 01:08:30;;;;;;;30.15;17.38;;;9.00;99.90;;;;;;5064350;28;20107;-90
2023/02/13 01:10:56;;;;;;;29.70;17.15;;;8.90;99.90;;;;;;5048537;28;20056;-90
2023/02/13 01:13:22;;;;;;;28.52;16.75;;;9.00;99.90;;;;;;5067594;28;20452;-91
2023/02/13 01:15:49;;;;;;;27.35;16.85;;;8.90;99.90;;;;;;5069897;28;20099;-91
2023/02/13 01:18:17;;;;;;;29.40;17.20;;;8.90;99.90;;;;;;5069397;28;20081;-90
2023/02/13 01:20:43;;;;;;;30.55;17.20;;;8.90;99.90;;;;;;5067649;28;20020;-91
2023/02/13 01:23:10;;;;;;;27.63;16.52;;;8.90;99.90;;;;;;5063924;28;20045;-90
2023/02/13 01:25:40;;;;;;;29.08;16.77;;;9.00;99.90;;;;;;5060946;28;20032;-90
2023/02/13 01:28:05;;;;;;;30.00;17.50;;;8.90;99.90;;;;;;5043134;28;20029;-91
2023/02/13 01:30:31;;;;;;;26.25;16.85;;;8.90;99.90;;;;;;5075615;28;20035;-91
2023/02/13 01:32:57;;;;;;;26.52;16.23;;;8.90;99.90;;;;;;5058680;28;20036;-89
2023/02/13 01:35:22;;;;;;;31.20;16.90;;;8.90;99.90;;;;;;5042033;28;20376;-90
2023/02/13 01:37:49;;;;;;;29.20;16.75;;;8.90;99.90;;;;;;5041870;28;20032;-90
2023/02/13 01:40:16;;;;;;;26.08;16.48;;;9.00;99.90;;;;;;5058621;28;20113;-90
2023/02/13 01:42:41;;;;;;;25.83;15.77;;;8.90;99.90;;;;;;5058565;28;20468;-91
2023/02/13 01:45:30;;;;;;;29.48;18.25;;;8.90;99.90;;;;;;5058788;28;20020;-90
2023/02/13 01:47:58;;;;;;;33.40;18.00;;;8.90;99.90;;;;;;5076199;28;20031;-90
2023/02/13 01:50:44;;;;;;;30.33;17.48;;;8.90;99.90;;;;;;5075261;28;20116;-90
2023/02/13 01:53:36;;;;;;;33.53;17.90;;;8.90;99.90;;;;;;5074926;28;20048;-91
2023/02/13 01:56:16;;;;;;;30.80;17.85;;;8.90;99.90;;;;;;5074840;28;20115;-90
2023/02/13 01:58:45;;;;;;;30.42;17.50;;;8.90;99.90;;;;;;5057784;28;20021;-90
2023/02/13 02:01:11;;;;;;;30.88;17.85;;;8.90;99.90;;;;;;5076096;28;20024;-90
2023/02/13 02:04:06;;;;;;;29.70;16.98;;;8.90;99.90;;;;;;5058131;28;20027;-90
2023/02/13 02:06:36;;;;;;;32.35;17.55;;;8.90;99.90;;;;;;5058307;28;20016;-91
2023/02/13 02:09:09;;;;;;;28.73;17.17;;;8.90;99.90;;;;;;5058410;28;20036;-90
2023/02/13 02:11:51;;;;;;;29.63;17.67;;;8.90;99.90;;;;;;5057746;28;20029;-90
2023/02/13 02:14:18;;;;;;;29.48;16.92;;;8.90;99.90;;;;;;5057561;28;20468;-90
2023/02/13 02:16:44;;;;;;;31.95;18.55;;;8.90;99.90;;;;;;5041015;28;20464;-89
2023/02/13 02:19:33;;;;;;;30.02;17.88;;;8.90;99.90;;;;;;5058112;28;20115;-89
2023/02/13 02:22:07;;;;;;;32.60;19.92;;;8.90;99.90;;;;;;5074761;28;20025;-91
2023/02/13 02:25:02;;;;;;;29.13;17.98;;;8.90;99.90;;;;;;5074168;28;20024;-91
2023/02/13 02:27:58;;;;;;;30.85;17.48;;;8.90;99.90;;;;;;5057475;28;20024;-90
2023/02/13 02:30:36;;;;;;;35.97;18.10;;;8.90;99.90;;;;;;5063903;28;20036;-91
2023/02/13 02:33:17;;;;;;;29.83;17.40;;;8.80;99.90;;;;;;5075168;28;20060;-91
2023/02/13 02:36:08;;;;;;;35.17;19.45;;;8.90;99.90;;;;;;5058036;28;20033;-90
2023/02/13 02:38:54;;;;;;;31.30;18.15;;;8.80;99.90;;;;;;5058815;28;20468;-91
2023/02/13 02:41:40;;;;;;;31.67;18.23;;;8.90;99.90;;;;;;5076670;28;20456;-90
2023/02/13 02:44:24;;;;;;;29.85;17.42;;;8.90;99.90;;;;;;5075228;28;20093;-90
2023/02/13 02:50:20;;;;;;;32.53;18.42;;;8.90;99.90;;;;;;5076716;28;20082;-90
2023/02/13 02:53:08;;;;;;;30.20;17.85;;;8.90;99.90;;;;;;5076513;28;20507;-90
2023/02/13 02:55:55;;;;;;;33.28;19.42;;;8.90;99.90;;;;;;5059196;28;20119;-91
2023/02/13 03:07:13;;;;;;;34.85;19.80;;;8.90;99.90;;;;;;5094111;28;20051;-90
2023/02/13 03:15:25;;;;;;;32.15;18.88;;;8.80;99.90;;;;;;5085582;28;20075;-90
2023/02/13 03:23:47;;;;;;;32.92;18.77;;;8.80;99.90;;;;;;5078131;28;20039;-92
2023/02/13 03:26:19;;;;;;;31.23;18.10;;;8.80;99.90;;;;;;5095161;28;20037;-91
2023/02/13 03:32:06;;;;;;;35.22;19.95;;;8.80;99.90;;;;;;5077710;28;20064;-91
2023/02/13 03:37:53;;;;;;;30.45;18.70;;;8.70;99.90;;;;;;5074934;28;20452;-91
2023/02/13 03:41:17;;;;;;;32.30;18.38;;;8.70;99.90;;;;;;5056695;28;20021;-90
2023/02/13 03:43:28;;;;;;;31.58;18.13;;;8.80;99.90;;;;;;5074762;28;20033;-91
2023/02/13 03:45:56;;;;;;;29.95;18.83;;;8.70;99.90;;;;;;5056848;28;20031;-91
2023/02/13 03:51:23;;;;;;;31.30;19.13;;;8.70;99.90;;;;;;5074832;28;20070;-91
2023/02/13 03:53:56;;;;;;;32.50;18.92;;;8.70;99.90;;;;;;5056785;28;20028;-91
2023/02/13 03:59:25;;;;;;;31.17;18.30;;;8.80;99.90;;;;;;5074695;28;20150;-91
2023/02/13 04:02:19;;;;;;;35.95;20.20;;;8.80;99.90;;;;;;5056185;28;20123;-91
2023/02/13 04:04:59;;;;;;;35.08;20.42;;;8.70;99.90;;;;;;5055957;28;20025;-91
2023/02/13 04:07:29;;;;;;;34.47;20.45;;;8.70;99.90;;;;;;5090281;28;20029;-90
2023/02/13 04:10:01;;;;;;;36.20;20.05;;;8.70;99.90;;;;;;5029802;28;20055;-90
2023/02/13 04:12:52;;;;;;;36.38;20.45;;;8.70;99.90;;;;;;5061398;28;20028;-90
2023/02/13 04:15:41;;;;;;;33.90;20.33;;;8.70;99.90;;;;;;5076604;28;20080;-91
2023/02/13 04:18:13;;;;;;;37.47;20.50;;;8.70;99.90;;;;;;5058877;28;20040;-91
2023/02/13 04:20:39;;;;;;;33.72;19.83;;;8.70;99.90;;;;;;5059790;28;20029;-90
2023/02/13 04:23:09;;;;;;;34.33;20.38;;;8.70;99.90;;;;;;5077784;28;20035;-92
2023/02/13 04:25:37;;;;;;;36.63;21.20;;;8.70;99.90;;;;;;5060418;28;20032;-90
2023/02/13 04:28:03;;;;;;;33.80;20.10;;;8.70;99.90;;;;;;5060220;28;20024;-91
2023/02/13 04:30:29;;;;;;;34.92;20.40;;;8.70;99.90;;;;;;5043270;28;20033;-91
2023/02/13 04:32:55;;;;;;;35.03;21.10;;;8.70;99.90;;;;;;5060659;28;20342;-91
2023/02/13 04:35:21;;;;;;;32.05;20.05;;;8.70;99.90;;;;;;5045383;28;20060;-90
2023/02/13 04:37:47;;;;;;;34.40;20.63;;;8.70;99.90;;;;;;5060306;28;20468;-90
2023/02/13 04:40:13;;;;;;;33.17;19.17;;;8.80;99.90;;;;;;5043013;28;20108;-91
2023/02/13 04:42:38;;;;;;;33.45;19.08;;;8.70;99.90;;;;;;5043108;28;20040;-91
2023/02/13 04:45:04;;;;;;;35.92;21.52;;;8.70;99.90;;;;;;5059499;28;20097;-91
2023/02/13 04:47:30;;;;;;;34.15;20.52;;;8.70;99.90;;;;;;5042644;28;20020;-91
2023/02/13 04:49:55;;;;;;;34.30;20.77;;;8.70;99.90;;;;;;5062345;28;20140;-91
2023/02/13 04:52:21;;;;;;;40.28;20.98;;;8.70;99.90;;;;;;5061360;28;20025;-91
2023/02/13 04:54:46;;;;;;;33.50;19.98;;;8.70;99.90;;;;;;5043137;28;20106;-91
2023/02/13 04:57:12;;;;;;;37.75;21.88;;;8.80;99.90;;;;;;5059597;28;20132;-92
2023/02/13 04:59:38;;;;;;;38.55;21.48;;;8.70;99.90;;;;;;5042899;28;20025;-92
2023/02/13 05:02:04;;;;;;;35.30;20.17;;;8.70;99.90;;;;;;5092801;28;20033;-91
2023/02/13 05:04:29;;;;;;;35.65;20.23;;;8.70;99.90;;;;;;5059309;28;20066;-91
2023/02/13 05:07:23;;;;;;;;;;;;;;;;;;;;;
2023/02/13 05:09:48;;;;;;;35.60;20.67;;;8.80;99.90;;;;;;5076604;28;20490;-91
2023/02/13 05:12:14;;;;;;;37.03;21.58;;;8.70;99.90;;;;;;5059547;28;20107;-90
2023/02/13 05:14:40;;;;;;;36.90;21.80;;;8.70;99.90;;;;;;5043105;28;20033;-91
2023/02/13 05:17:05;;;;;;;38.03;21.92;;;8.70;99.90;;;;;;5043061;28;20051;-90
2023/02/13 05:19:31;;;;;;;36.75;20.95;;;8.70;99.90;;;;;;5043027;28;20036;-91
2023/02/13 05:24:41;;;;;;;35.92;21.27;;;8.70;99.90;;;;;;5062163;28;20079;-92
2023/02/13 05:27:07;;;;;;;35.75;21.75;;;8.70;99.90;;;;;;5059022;28;20025;-91
2023/02/13 05:29:32;;;;;;;35.22;21.45;;;8.70;99.90;;;;;;5042192;28;20036;-91
2023/02/13 05:31:58;;;;;;;35.13;21.02;;;8.70;99.90;;;;;;5059070;28;20037;-90
2023/02/13 05:34:26;;;;;;;34.83;20.48;;;8.70;99.90;;;;;;5059143;28;20081;-91
2023/02/13 05:36:52;;;;;;;36.28;20.73;;;8.70;99.90;;;;;;5059674;28;20035;-90
2023/02/13 05:39:18;;;;;;;34.90;21.38;;;8.70;99.90;;;;;;5059084;28;20031;-91
2023/02/13 05:41:45;;;;;;;33.63;20.63;;;8.70;99.90;;;;;;5076882;28;20184;-91
2023/02/13 05:44:11;;;;;;;37.75;21.73;;;8.70;99.90;;;;;;5041933;28;20064;-92
2023/02/13 05:46:38;;;;;;;38.80;22.52;;;8.70;99.90;;;;;;5058538;28;20056;-91
2023/02/13 05:49:05;;;;;;;36.22;21.23;;;8.70;99.90;;;;;;5041593;28;20056;-91
2023/02/13 05:51:33;;;;;;;39.63;22.70;;;8.70;99.90;;;;;;5076916;28;20472;-91
2023/02/13 05:53:58;;;;;;;37.53;21.90;;;8.70;99.90;;;;;;5042492;28;20034;-91
2023/02/13 05:56:24;;;;;;;36.00;21.48;;;8.70;99.90;;;;;;5041978;28;20036;-91
2023/02/13 05:58:51;;;;;;;36.00;21.88;;;8.70;99.90;;;;;;5058364;28;20459;-92
2023/02/13 06:01:17;;;;;;;36.85;20.85;;;8.70;99.90;;;;;;5060087;28;20020;-91
2023/02/13 06:03:43;;;;;;;36.20;21.85;;;8.70;99.90;;;;;;5058996;28;20044;-93
2023/02/13 06:06:09;;;;;;;36.53;22.42;;;8.70;99.90;;;;;;5058316;28;20020;-94
2023/02/13 06:08:34;;;;;;;38.08;22.20;;;8.70;99.90;;;;;;5058459;28;20484;-92
2023/02/13 06:11:00;;;;;;;34.83;21.02;;;8.70;99.90;;;;;;5058405;28;20024;-91
2023/02/13 06:13:29;;;;;;;37.65;22.20;;;8.70;99.90;;;;;;5077039;28;20506;-91
2023/02/13 06:15:55;;;;;;;37.70;21.92;;;8.70;99.90;;;;;;5058172;28;20025;-90
2023/02/13 06:18:24;;;;;;;35.88;22.17;;;8.70;99.90;;;;;;5075545;28;20055;-91
2023/02/13 06:20:49;;;;;;;38.08;22.77;;;8.70;99.90;;;;;;5061413;28;20028;-91
2023/02/13 06:23:15;;;;;;;35.63;22.10;;;8.70;99.90;;;;;;5091288;28;20029;-91
2023/02/13 06:25:41;;;;;;;32.92;21.13;;;8.70;99.90;;;;;;5078349;28;20028;-91
2023/02/13 06:28:07;;;;;;;35.10;22.17;;;8.70;99.90;;;;;;5061656;28;20029;-92
2023/02/13 06:30:33;;;;;;;36.35;21.73;;;8.70;99.90;;;;;;5073226;28;20039;-90
2023/02/13 06:32:59;;;;;;;35.90;22.10;;;8.70;99.90;;;;;;5075261;28;20036;-93
2023/02/13 06:35:25;;;;;;;34.30;20.20;;;8.70;99.90;;;;;;5059972;28;20020;-91
2023/02/13 06:37:50;;;;;;;34.78;21.35;;;8.70;99.90;;;;;;5046452;28;20020;-91
2023/02/13 06:40:17;;;;;;;35.53;21.25;;;8.70;99.90;;;;;;5076049;28;20159;-91
2023/02/13 06:42:45;;;;;;;35.35;21.30;;;8.70;99.90;;;;;;5058867;28;20044;-91
2023/02/13 06:45:12;;;;;;;34.10;21.15;;;8.60;99.90;;;;;;5041410;28;20487;-90
2023/02/13 06:47:43;;;;;;;34.42;21.73;;;8.60;99.90;;;;;;5057869;28;20031;-91
2023/02/13 06:50:10;;;;;;;32.80;20.63;;;8.70;99.90;;;;;;5075346;28;20481;-90
2023/02/13 06:52:36;;;;;;;30.58;19.95;;;8.70;99.90;;;;;;5058146;28;20419;-91
2023/02/13 06:55:02;;;;;;;33.58;21.20;;;8.70;99.90;;;;;;5041028;28;20028;-92
2023/02/13 06:57:31;;;;;;;32.83;21.20;;;8.70;99.90;;;;;;5040765;28;20028;-92
2023/02/13 07:00:04;;;;;;;35.08;21.45;;;8.70;99.90;;;;;;5041530;28;20036;-92
2023/02/13 07:02:31;;;;;;;32.70;21.13;;;8.70;99.90;;;;;;5042313;28;20026;-90
2023/02/13 07:04:56;;;;;;;35.08;20.95;;;8.70;99.90;;;;;;5041202;28;20153;-91
2023/02/13 07:07:22;;;;;;;33.88;21.60;;;8.70;99.90;;;;;;5057260;28;20024;-90
2023/02/13 07:09:48;;;;;;;34.63;20.95;;;8.70;99.90;;;;;;5025062;28;20476;-91
2023/02/13 07:12:13;;;;;;;36.65;23.23;;;8.70;99.90;;;;;;5040791;28;20488;-90
2023/02/13 07:14:39;;;;;;;35.05;22.83;;;8.70;99.90;;;;;;5057181;28;20048;-91
2023/02/13 07:17:05;;;;;;;36.08;22.45;;;8.70;99.90;;;;;;5090700;28;20123;-92
2023/02/13 07:19:31;;;;;;;38.67;24.75;;;8.70;99.90;;;;;;5057166;28;20052;-91
2023/02/13 07:21:57;;;;;;;34.63;22.83;;;8.70;99.90;;;;;;5074926;28;20029;-91
2023/02/13 07:24:23;;;;;;;35.63;21.83;;;8.70;99.90;;;;;;5057678;28;20020;-91
2023/02/13 07:26:49;;;;;;;35.80;22.08;;;8.70;99.90;;;;;;5056958;28;20122;-91
2023/02/13 07:29:14;;;;;;;36.75;22.10;;;8.70;99.90;;;;;;5057081;28;20123;-90
2023/02/13 07:31:42;;;;;;;35.88;22.08;;;8.70;99.90;;;;;;5040346;28;20032;-89
2023/02/13 07:34:08;;;;;;;35.53;21.63;;;8.70;99.90;;;;;;5023890;28;20048;-90
2023/02/13 07:36:34;;;;;;;35.38;23.75;;;8.70;99.90;;;;;;5074677;28;20044;-90
2023/02/13 07:38:59;;;;;;;36.95;22.27;;;8.70;99.90;;;;;;5040338;28;20033;-90
2023/02/13 07:41:28;;;;;;;37.40;22.45;;;8.70;99.90;;;;;;5057040;28;20060;-91
2023/02/13 07:43:55;;;;;;;35.90;22.98;;;8.70;99.90;;;;;;5057514;28;20025;-90
2023/02/13 07:46:21;;;;;;;36.63;24.88;;;8.70;99.90;;;;;;5096727;28;20056;-93
2023/02/13 07:48:47;;;;;;;34.22;23.23;;;8.70;99.90;;;;;;5075707;28;20485;-92
2023/02/13 07:51:12;;;;;;;37.85;24.83;;;8.70;99.90;;;;;;5044159;28;20119;-90
2023/02/13 07:53:38;;;;;;;37.30;23.60;;;8.70;99.90;;;;;;5061685;28;20028;-90
2023/02/13 07:56:08;;;;;;;34.17;22.25;;;8.70;99.90;;;;;;5059980;28;20032;-92
2023/02/13 07:58:35;;;;;;;38.28;22.70;;;8.70;99.90;;;;;;5073892;28;20031;-92
2023/02/13 08:01:08;;;;;;;35.63;23.25;;;8.70;99.90;;;;;;5060228;28;20024;-92
2023/02/13 08:03:34;;;;;;;39.13;24.48;;;8.80;99.90;;;;;;5049127;28;20092;-93
2023/02/13 08:06:00;;;;;;;36.10;22.25;;;8.70;99.90;;;;;;5043844;28;20033;-92
2023/02/13 08:08:26;;;;;;;35.05;22.52;;;8.70;99.90;;;;;;5050783;28;20031;-92
2023/02/13 08:13:36;;;;;;;40.92;24.85;;;8.80;99.90;;;;;;5088829;28;20104;-91
2023/02/13 08:16:02;;;;;;;35.40;22.10;;;8.80;99.90;;;;;;5053547;28;20110;-93
2023/02/13 08:18:30;;;;;;;37.72;23.20;;;8.80;99.90;;;;;;5072568;28;20035;-91
2023/02/13 08:20:56;;;;;;;41.53;23.38;;;8.80;99.90;;;;;;5081817;28;20021;-90
2023/02/13 08:23:21;;;;;;;37.05;24.10;;;8.80;99.90;;;;;;5083365;28;20016;-92
2023/02/13 08:25:48;;;;;;;34.97;22.63;;;8.80;99.90;;;;;;5089977;28;20028;-95
2023/02/13 08:28:15;;;;;;;35.70;23.63;;;8.80;99.90;;;;;;5069831;28;20035;-92
2023/02/13 08:30:41;;;;;;;44.50;26.00;;;8.80;99.90;;;;;;5070211;28;20124;-90
2023/02/13 08:33:06;;;;;;;40.67;23.77;;;8.80;99.90;;;;;;5071204;28;20133;-91
2023/02/13 08:35:32;;;;;;;42.63;24.60;;;8.80;99.90;;;;;;5057862;28;20009;-92
2023/02/13 08:38:04;;;;;;;36.67;23.38;;;8.80;99.90;;;;;;5091282;28;20246;-92
2023/02/13 08:40:31;;;;;;;35.88;22.48;;;8.80;99.90;;;;;;5077327;28;20023;-92
2023/02/13 08:43:02;;;;;;;38.85;23.70;;;8.90;99.90;;;;;;5059653;28;20036;-90
2023/02/13 08:45:27;;;;;;;35.95;23.05;;;8.90;99.90;;;;;;5079347;28;20020;-90
2023/02/13 08:47:58;;;;;;;33.70;21.63;;;8.90;99.90;;;;;;5047095;28;20024;-89
2023/02/13 08:50:24;;;;;;;37.03;22.50;;;8.90;99.90;;;;;;5051008;28;20139;-90
2023/02/13 08:52:50;;;;;;;35.53;23.45;;;9.00;99.90;;;;;;5063416;28;20388;-89
2023/02/13 08:55:16;;;;;;;34.63;22.05;;;8.90;99.90;;;;;;5042663;28;20035;-89
2023/02/13 08:57:41;;;;;;;34.42;23.45;;;9.00;99.90;;;;;;5058568;28;20035;-89
2023/02/13 09:00:11;;;;;;;36.10;22.52;;;9.00;99.90;;;;;;5060304;28;20031;-90
2023/02/13 09:02:36;;;;;;;34.15;21.98;;;9.00;99.90;;;;;;5060603;28;20042;-89
2023/02/13 09:05:02;;;;;;;33.50;22.65;;;9.10;99.90;;;;;;5044182;28;20020;-89
2023/02/13 09:07:28;;;;;;;35.00;21.30;;;9.10;99.90;;;;;;5059882;28;20029;-89
2023/02/13 09:09:54;;;;;;;36.50;20.95;;;9.10;99.90;;;;;;5079145;28;20124;-89
2023/02/13 09:12:22;;;;;;;32.42;20.50;;;9.10;99.90;;;;;;5055459;28;20029;-89
2023/02/13 09:14:48;;;;;;;32.42;20.67;;;9.20;99.90;;;;;;5061894;28;20021;-89
2023/02/13 09:17:17;;;;;;;31.65;19.90;;;9.20;99.90;;;;;;5069931;28;20033;-88
2023/02/13 09:19:45;;;;;;;30.33;19.70;;;9.20;99.90;;;;;;5041690;28;20071;-90
2023/02/13 09:22:11;;;;;;;29.52;19.27;;;9.30;99.90;;;;;;5059747;28;20085;-93
2023/02/13 09:24:39;;;;;;;32.88;20.75;;;9.20;99.90;;;;;;5060299;28;20028;-89
2023/02/13 09:27:06;;;;;;;30.80;20.13;;;9.30;99.90;;;;;;5049088;28;20024;-88
2023/02/13 09:29:32;;;;;;;29.38;19.48;;;9.30;99.90;;;;;;5091214;28;20032;-89
2023/02/13 09:32:10;;;;;;;;;;;;;;;;;;;;;
2023/02/13 09:34:37;;;;;;;28.92;19.58;;;9.40;99.90;;;;;;5066174;28;20542;-89
2023/02/13 09:37:05;;;;;;;29.75;19.63;;;9.40;99.90;;;;;;5059664;28;20055;-90
2023/02/13 09:39:33;;;;;;;27.33;19.02;;;9.40;99.90;;;;;;5075139;28;20020;-89
2023/02/13 09:42:02;;;;;;;29.83;19.50;;;9.50;99.90;;;;;;5069322;28;20033;-89
2023/02/13 09:44:40;;;;;;;29.98;20.00;;;9.50;99.90;;;;;;5086679;28;20065;-96
2023/02/13 09:47:27;;;;;;;28.05;18.15;;;9.50;99.90;;;;;;5087303;28;20107;-91
2023/02/13 09:49:59;;;;;;;27.05;18.38;;;9.60;99.90;;;;;;5085498;28;20044;-93
2023/02/13 09:52:30;;;;;;;29.15;18.63;;;9.60;99.90;;;;;;5083429;28;20028;-90
2023/02/13 09:54:55;;;;;;;26.45;18.58;;;9.60;99.90;;;;;;5108735;28;20024;-90
2023/02/13 09:57:27;;;;;;;24.15;16.88;;;9.60;99.90;;;;;;5076943;28;20026;-88
2023/02/13 10:00:20;;;;;;;27.15;17.75;;;9.70;99.90;;;;;;5067595;28;20024;-88
2023/02/13 10:02:50;;;;;;;28.95;16.90;;;9.80;99.90;;;;;;5055496;28;20113;-89
2023/02/13 10:05:29;;;;;;;28.08;18.20;;;9.80;99.90;;;;;;5064856;28;20020;-88
2023/02/13 10:08:13;;;;;;;27.10;17.88;;;9.90;99.90;;;;;;5061060;28;20407;-89
2023/02/13 10:10:42;;;;;;;28.70;17.95;;;9.90;99.90;;;;;;5058003;28;20036;-94
2023/02/13 10:13:42;;;;;;;22.80;15.57;;;10.00;99.90;;;;;;5082937;28;20024;-89
2023/02/13 10:16:13;;;;;;;25.83;16.98;;;10.10;99.90;;;;;;5073999;28;20032;-89
2023/02/13 10:19:14;;;;;;;24.25;17.45;;;10.10;99.90;;;;;;5061282;28;20062;-89
2023/02/13 10:21:49;;;;;;;23.35;16.23;;;10.20;99.90;;;;;;5077453;28;20480;-90
2023/02/13 10:24:30;;;;;;;24.10;16.05;;;10.30;99.90;;;;;;5058554;28;20021;-91
2023/02/13 10:26:57;;;;;;;24.50;17.15;;;10.30;99.90;;;;;;5072921;28;20032;-89
2023/02/13 10:32:21;;;;;;;23.25;15.75;;;10.50;99.90;;;;;;5079474;28;20040;-91
2023/02/13 10:34:47;;;;;;;;;;;10.50;99.90;;;;;;5056658;28;20031;-88
2023/02/13 10:37:16;;;;;;;24.40;15.40;;;10.60;99.90;;;;;;5040684;28;20007;-87
2023/02/13 10:39:45;;;;;;;24.48;16.67;;;10.70;99.90;;;;;;5065344;28;20020;-87
2023/02/13 10:42:21;;;;;;;22.55;15.48;;;10.70;99.90;;;;;;5059477;28;20025;-87
2023/02/13 10:44:55;;;;;;;23.10;16.15;;;10.80;99.90;;;;;;5064953;28;20035;-87
2023/02/13 10:47:26;;;;;;;23.75;16.20;;;10.80;99.90;;;;;;5052760;28;20108;-88
2023/02/13 10:50:24;;;;;;;23.77;16.15;;;10.90;99.90;;;;;;5061787;28;20086;-88
2023/02/13 10:53:13;;;;;;;21.77;15.75;;;11.00;99.90;;;;;;5044100;28;20063;-88
2023/02/13 10:55:59;;;;;;;20.80;15.27;;;11.00;99.90;;;;;;5085117;28;20019;-88
2023/02/13 10:58:46;;;;;;;21.48;15.23;;;11.10;99.90;;;;;;5035560;28;20032;-88
2023/02/13 11:01:21;;;;;;;22.05;15.85;;;11.20;99.90;;;;;;5061413;28;20032;-89
2023/02/13 11:03:59;;;;;;;23.02;16.33;;;11.20;99.90;;;;;;5066996;28;20479;-88
2023/02/13 11:06:25;;;;;;;23.65;15.73;;;11.30;99.90;;;;;;5078193;28;20024;-87
2023/02/13 11:08:50;;;;;;;25.50;15.70;;;11.30;99.90;;;;;;5039835;28;20027;-88
2023/02/13 11:11:31;;;;;;;22.83;15.02;;;11.40;99.90;;;;;;5063360;28;20450;-88
2023/02/13 11:14:26;;;;;;;21.35;15.35;;;11.50;99.90;;;;;;5060594;28;20107;-88
2023/02/13 11:16:57;;;;;;;20.55;14.40;;;11.50;99.90;;;;;;5042078;28;20040;-87
2023/02/13 11:19:23;;;;;;;23.27;15.18;;;11.50;99.90;;;;;;5067273;28;20460;-87
2023/02/13 11:21:54;;;;;;;24.77;16.05;;;11.60;99.90;;;;;;5070486;28;20043;-89
2023/02/13 11:24:23;;;;;;;19.88;13.55;;;11.60;99.90;;;;;;5086053;28;20031;-89
2023/02/13 11:26:58;;;;;;;20.65;14.95;;;11.80;99.90;;;;;;5063565;28;20036;-91
2023/02/13 11:29:31;;;;;;;20.48;14.55;;;11.90;99.90;;;;;;5065176;28;20025;-90
2023/02/13 11:32:16;;;;;;;21.70;14.82;;;12.00;99.90;;;;;;5065882;28;20035;-89
2023/02/13 11:34:42;;;;;;;19.70;14.25;;;12.00;99.90;;;;;;5065022;28;20060;-89
2023/02/13 11:37:16;;;;;;;19.33;13.98;;;12.10;99.90;;;;;;5047099;28;20026;-89
2023/02/13 11:39:43;;;;;;;20.27;14.30;;;12.20;99.90;;;;;;5068606;28;20031;-88
2023/02/13 11:42:27;;;;;;;21.30;15.38;;;12.20;99.90;;;;;;5060415;28;20037;-89
2023/02/13 11:45:19;;;;;;;20.10;14.73;;;12.30;99.90;;;;;;5056186;28;20025;-89
2023/02/13 11:47:45;;;;;;;20.00;14.82;;;12.40;99.90;;;;;;5075947;28;20033;-91
2023/02/13 11:50:25;;;;;;;19.95;14.65;;;12.50;99.90;;;;;;5058796;28;20053;-91
2023/02/13 11:53:16;;;;;;;18.77;13.82;;;12.60;99.90;;;;;;5075201;28;20565;-91
2023/02/13 11:55:43;;;;;;;18.77;12.90;;;12.60;99.90;;;;;;5054675;28;20081;-89
2023/02/13 11:58:14;;;;;;;17.40;13.40;;;12.70;99.90;;;;;;5055192;28;20033;-90
2023/02/13 12:00:46;;;;;;;18.50;13.52;;;12.80;99.90;;;;;;5043368;28;20032;-90
2023/02/13 12:03:26;;;;;;;18.48;12.57;;;12.80;99.90;;;;;;5056414;28;20036;-90
2023/02/13 12:06:13;;;;;;;;;;;;;;;;;;;;;
2023/02/13 12:08:42;;;;;;;18.52;13.65;;;13.00;99.90;;;;;;5057531;28;20044;-91
2023/02/13 12:11:26;;;;;;;18.42;13.27;;;13.00;99.90;;;;;;5056552;28;20432;-88
2023/02/13 12:13:58;;;;;;;21.05;14.15;;;13.10;99.90;;;;;;5055180;28;20056;-88
2023/02/13 12:16:29;;;;;;;19.35;14.25;;;13.20;99.90;;;;;;5022626;28;20403;-89
2023/02/13 12:19:00;;;;;;;16.73;12.90;;;13.30;99.90;;;;;;5053055;28;20055;-89
2023/02/13 12:21:43;;;;;;;20.52;13.43;;;13.40;99.90;;;;;;5053531;28;20067;-91
2023/02/13 12:24:33;;;;;;;20.20;13.90;;;13.40;99.90;;;;;;5054855;28;20040;-89
2023/02/13 12:27:35;;;;;;;;;;;;;;;;;;;;;
2023/02/13 12:30:26;;;;;;;18.58;13.52;;;13.60;99.90;;;;;;5055158;28;20033;-89
2023/02/13 12:33:15;;;;;;;19.75;13.23;;;13.80;99.90;;;;;;5064903;28;20028;-88
2023/02/13 12:35:51;;;;;;;17.52;12.88;;;13.90;99.90;;;;;;5056070;28;20032;-88
2023/02/13 12:38:45;;;;;;;16.52;13.18;;;14.00;99.90;;;;;;5058963;28;20486;-89
2023/02/13 12:41:24;;;;;;;18.85;14.00;;;14.00;99.90;;;;;;5060452;28;20052;-89
2023/02/13 12:44:25;;;;;;;17.08;13.27;;;14.10;99.90;;;;;;5043949;28;20033;-89
2023/02/13 12:46:51;;;;;;;;;;;14.10;99.90;;;;;;5059568;28;20116;-89
2023/02/13 12:49:59;;;;;;;19.85;13.68;;;14.20;99.90;;;;;;5064275;28;19951;-90
2023/02/13 12:52:25;;;;;;;17.35;13.07;;;14.20;99.90;;;;;;5026255;28;20117;-89
2023/02/13 12:55:22;;;;;;;16.77;12.80;;;14.30;99.90;;;;;;5064970;28;20051;-89
2023/02/13 12:58:05;;;;;;;23.33;14.50;;;14.30;99.90;;;;;;5092172;28;20021;-90
2023/02/13 13:00:49;;;;;;;19.58;13.00;;;14.40;99.90;;;;;;5065132;28;20033;-89
2023/02/13 13:03:39;;;;;;;17.48;13.07;;;14.40;99.90;;;;;;5063344;28;20120;-91
2023/02/13 13:06:18;;;;;;;18.15;13.18;;;14.50;99.90;;;;;;5076243;28;20088;-89
2023/02/13 13:09:08;;;;;;;18.45;12.95;;;14.60;99.90;;;;;;5094944;28;20101;-92
2023/02/13 13:12:13;;;;;;;15.57;11.70;;;14.50;99.90;;;;;;5092706;28;20147;-90
2023/02/13 13:14:54;;;;;;;17.45;12.52;;;14.60;99.90;;;;;;5087997;28;20299;-89
2023/02/13 13:17:42;;;;;;;19.63;12.23;;;14.60;99.90;;;;;;5081094;28;20074;-91
2023/02/13 13:20:26;;;;;;;19.98;12.00;;;14.70;99.90;;;;;;5114036;28;20038;-89
2023/02/13 13:22:59;;;;;;;16.60;11.75;;;14.60;99.90;;;;;;5091650;28;20032;-88
2023/02/13 13:25:35;;;;;;;17.70;12.25;;;14.80;99.90;;;;;;5076397;28;20023;-88
2023/02/13 13:28:08;;;;;;;16.83;11.57;;;14.80;99.90;;;;;;5061987;28;20017;-88
2023/02/13 13:30:36;;;;;;;18.95;11.70;;;14.80;99.90;;;;;;5072382;28;20036;-88
2023/02/13 13:33:20;;;;;;;15.85;11.38;;;14.90;99.90;;;;;;5076372;28;20074;-88
2023/02/13 13:36:10;;;;;;;18.60;12.55;;;15.00;99.90;;;;;;5091897;28;20017;-88
2023/02/13 13:38:52;;;;;;;16.07;11.43;;;15.10;99.90;;;;;;5070967;28;20034;-87
2023/02/13 13:41:31;;;;;;;16.38;11.18;;;15.10;99.90;;;;;;5064339;28;20088;-88
2023/02/13 13:44:41;;;;;;;17.77;11.15;;;15.10;99.90;;;;;;5070755;28;20023;-89
2023/02/13 13:47:32;;;;;;;17.73;12.07;;;15.20;99.90;;;;;;5021242;28;20041;-89
2023/02/13 13:50:04;;;;;;;14.77;11.30;;;15.20;99.90;;;;;;5032095;28;20058;-89